createdAt,value
2023-05-23T00:06:37.185Z,14.8
2023-05-23T00:21:37.122Z,14.4
2023-05-23T00:36:37.117Z,14.2
2023-05-23T00:51:37.178Z,13.9
2023-05-23T01:06:37.175Z,13.7
2023-05-23T01:21:37.168Z,13.6
2023-05-23T01:36:37.148Z,13.6
2023-05-23T01:51:37.255Z,13.6
2023-05-23T02:06:37.170Z,13.3
2023-05-23T02:21:37.100Z,13.2
2023-05-23T02:36:37.147Z,13.2
2023-05-23T02:51:37.165Z,13.2
2023-05-23T03:06:37.225Z,13.2
2023-05-23T03:21:37.145Z,13.2
2023-05-23T03:36:37.179Z,13.1
2023-05-23T03:51:37.175Z,13
2023-05-23T04:06:37.147Z,13
2023-05-23T04:21:37.102Z,12.9
2023-05-23T04:36:37.207Z,12.9
2023-05-23T04:51:37.158Z,12.9
2023-05-23T05:06:37.153Z,12.8
2023-05-23T05:21:37.128Z,12.9
2023-05-23T05:36:37.137Z,12.9
2023-05-23T05:51:37.121Z,12.9
2023-05-23T06:06:37.141Z,12.9
2023-05-23T06:21:37.153Z,12.9
2023-05-23T06:36:37.174Z,12.9
2023-05-23T06:51:37.164Z,12.7
2023-05-23T07:06:37.111Z,12.8
2023-05-23T07:21:37.153Z,12.7
2023-05-23T07:36:37.153Z,12.6
2023-05-23T07:51:37.174Z,12.8
2023-05-23T08:06:38.546Z,12.4
2023-05-23T08:21:37.151Z,12.5
2023-05-23T08:36:37.152Z,12.7
2023-05-23T08:51:37.184Z,12.6
2023-05-23T09:06:37.256Z,13
2023-05-23T09:21:37.137Z,12.6
2023-05-23T09:36:37.178Z,12.2
2023-05-23T09:51:37.172Z,13.1
2023-05-23T10:06:37.172Z,12.9
2023-05-23T10:21:37.198Z,13.2
2023-05-23T10:36:37.182Z,14.2
2023-05-23T10:51:37.168Z,13.9
2023-05-23T11:06:37.159Z,14.2
2023-05-23T11:21:37.151Z,14.5
2023-05-23T11:36:37.165Z,14.3
2023-05-23T11:51:37.191Z,14.7
2023-05-23T12:06:37.103Z,14.6
2023-05-23T12:21:37.128Z,15.6
2023-05-23T12:51:37.111Z,15.6
2023-05-23T13:06:37.171Z,15.6
2023-05-23T13:21:37.163Z,16
2023-05-23T13:36:37.175Z,16.5
2023-05-23T13:51:37.177Z,16.3
2023-05-23T14:06:37.186Z,17.6
2023-05-23T14:21:37.167Z,17.2
2023-05-23T14:36:37.121Z,17
2023-05-23T14:51:46.509Z,16.6
2023-05-23T15:06:37.159Z,16.4
2023-05-23T15:21:37.179Z,16.5
2023-05-23T15:36:37.214Z,16.8
2023-05-23T15:51:37.185Z,16.8
2023-05-23T16:06:37.191Z,16.5
2023-05-23T16:21:37.171Z,17.4
2023-05-23T16:36:37.127Z,16.5
2023-05-23T16:51:37.113Z,17.5
2023-05-23T17:06:37.190Z,16.6
2023-05-23T17:21:37.112Z,16.9
2023-05-23T17:36:37.168Z,15.8
2023-05-23T17:51:37.169Z,16.2
2023-05-23T18:06:37.164Z,15.8
2023-05-23T18:21:37.147Z,15.3
2023-05-23T18:36:37.163Z,14.7
2023-05-23T18:51:37.199Z,14.4
2023-05-23T19:06:37.185Z,14
2023-05-23T19:21:37.140Z,13.4
2023-05-23T19:36:37.169Z,13.1
2023-05-23T19:51:37.162Z,12.7
2023-05-23T20:06:37.111Z,12.3
2023-05-23T20:21:37.182Z,11.9
2023-05-23T20:36:37.242Z,11.6
2023-05-23T20:51:37.195Z,11.4
2023-05-23T21:06:37.156Z,11.1
2023-05-23T21:21:37.132Z,10.9
2023-05-23T21:36:37.172Z,10.6
2023-05-23T21:51:37.180Z,10.5
2023-05-23T22:06:37.177Z,10.2
2023-05-23T22:21:37.153Z,9.9
2023-05-23T22:36:37.162Z,9.8
2023-05-23T22:51:37.169Z,9.4
2023-05-23T23:06:37.177Z,9.2
2023-05-23T23:21:37.155Z,9.1
2023-05-23T23:36:37.181Z,8.9
2023-05-23T23:51:37.145Z,8.7
